sensor_id;sensor_type;location;lat;lon;timestamp;P1;durP1;ratioP1;P2;durP2;ratioP2
23159;SDS011;11748;50.844;4.396;2023-07-31T00:00:23;13.10;;;4.53;;
23159;SDS011;11748;50.844;4.396;2023-07-31T00:02:52;15.63;;;4.93;;
23159;SDS011;11748;50.844;4.396;2023-07-31T00:05:21;14.45;;;4.50;;
23159;SDS011;11748;50.844;4.396;2023-07-31T00:07:51;17.27;;;4.88;;
23159;SDS011;11748;50.844;4.396;2023-07-31T00:10:22;15.00;;;4.40;;
23159;SDS011;11748;50.844;4.396;2023-07-31T00:12:51;14.57;;;4.20;;
23159;SDS011;11748;50.844;4.396;2023-07-31T00:17:48;14.20;;;4.65;;
23159;SDS011;11748;50.844;4.396;2023-07-31T00:20:22;17.85;;;4.93;;
23159;SDS011;11748;50.844;4.396;2023-07-31T00:22:57;11.90;;;5.25;;
23159;SDS011;11748;50.844;4.396;2023-07-31T00:25:23;14.88;;;4.93;;
23159;SDS011;11748;50.844;4.396;2023-07-31T00:27:52;15.48;;;5.00;;
23159;SDS011;11748;50.844;4.396;2023-07-31T00:30:33;12.23;;;4.90;;
23159;SDS011;11748;50.844;4.396;2023-07-31T00:33:04;14.85;;;4.28;;
23159;SDS011;11748;50.844;4.396;2023-07-31T00:35:31;12.30;;;4.22;;
23159;SDS011;11748;50.844;4.396;2023-07-31T00:38:03;13.77;;;4.65;;
23159;SDS011;11748;50.844;4.396;2023-07-31T00:43:04;12.20;;;4.57;;
23159;SDS011;11748;50.844;4.396;2023-07-31T00:45:31;15.63;;;5.22;;
23159;SDS011;11748;50.844;4.396;2023-07-31T00:48:01;15.93;;;4.85;;
23159;SDS011;11748;50.844;4.396;2023-07-31T00:55:52;9.82;;;4.53;;
23159;SDS011;11748;50.844;4.396;2023-07-31T00:58:19;15.65;;;5.05;;
23159;SDS011;11748;50.844;4.396;2023-07-31T01:00:50;11.23;;;4.47;;
23159;SDS011;11748;50.844;4.396;2023-07-31T01:09:04;14.23;;;4.88;;
23159;SDS011;11748;50.844;4.396;2023-07-31T01:11:51;12.05;;;4.18;;
23159;SDS011;11748;50.844;4.396;2023-07-31T01:14:21;12.77;;;5.10;;
23159;SDS011;11748;50.844;4.396;2023-07-31T01:16:54;10.52;;;4.20;;
23159;SDS011;11748;50.844;4.396;2023-07-31T01:27:53;13.93;;;5.13;;
23159;SDS011;11748;50.844;4.396;2023-07-31T01:30:29;14.02;;;4.40;;
23159;SDS011;11748;50.844;4.396;2023-07-31T01:33:02;12.85;;;4.55;;
23159;SDS011;11748;50.844;4.396;2023-07-31T01:35:37;13.48;;;4.32;;
23159;SDS011;11748;50.844;4.396;2023-07-31T01:40:34;13.05;;;4.85;;
23159;SDS011;11748;50.844;4.396;2023-07-31T01:43:02;13.80;;;5.25;;
23159;SDS011;11748;50.844;4.396;2023-07-31T01:45:28;11.50;;;5.07;;
23159;SDS011;11748;50.844;4.396;2023-07-31T01:47:56;13.25;;;4.30;;
23159;SDS011;11748;50.844;4.396;2023-07-31T01:50:21;13.07;;;4.88;;
23159;SDS011;11748;50.844;4.396;2023-07-31T01:52:47;11.07;;;5.18;;
23159;SDS011;11748;50.844;4.396;2023-07-31T01:55:15;12.38;;;4.82;;
23159;SDS011;11748;50.844;4.396;2023-07-31T01:57:44;11.60;;;4.63;;
23159;SDS011;11748;50.844;4.396;2023-07-31T02:00:15;12.10;;;4.97;;
23159;SDS011;11748;50.844;4.396;2023-07-31T02:02:44;11.18;;;4.63;;
23159;SDS011;11748;50.844;4.396;2023-07-31T02:05:21;11.57;;;4.88;;
23159;SDS011;11748;50.844;4.396;2023-07-31T02:07:50;10.15;;;5.13;;
23159;SDS011;11748;50.844;4.396;2023-07-31T02:10:19;12.15;;;4.93;;
23159;SDS011;11748;50.844;4.396;2023-07-31T02:12:46;11.20;;;4.65;;
23159;SDS011;11748;50.844;4.396;2023-07-31T02:15:30;10.50;;;4.88;;
23159;SDS011;11748;50.844;4.396;2023-07-31T02:18:03;12.32;;;5.20;;
23159;SDS011;11748;50.844;4.396;2023-07-31T02:20:38;11.00;;;4.38;;
23159;SDS011;11748;50.844;4.396;2023-07-31T02:23:20;11.43;;;4.43;;
23159;SDS011;11748;50.844;4.396;2023-07-31T02:25:46;12.50;;;4.88;;
23159;SDS011;11748;50.844;4.396;2023-07-31T02:28:13;9.13;;;4.22;;
23159;SDS011;11748;50.844;4.396;2023-07-31T02:30:44;9.25;;;5.28;;
23159;SDS011;11748;50.844;4.396;2023-07-31T02:33:14;10.77;;;4.70;;
23159;SDS011;11748;50.844;4.396;2023-07-31T02:39:07;8.25;;;4.45;;
23159;SDS011;11748;50.844;4.396;2023-07-31T02:41:32;7.57;;;3.95;;
23159;SDS011;11748;50.844;4.396;2023-07-31T02:43:58;9.15;;;4.18;;
23159;SDS011;11748;50.844;4.396;2023-07-31T02:46:25;11.70;;;4.68;;
23159;SDS011;11748;50.844;4.396;2023-07-31T02:48:51;8.43;;;4.15;;
23159;SDS011;11748;50.844;4.396;2023-07-31T02:51:18;7.95;;;3.97;;
23159;SDS011;11748;50.844;4.396;2023-07-31T02:54:04;8.55;;;4.43;;
23159;SDS011;11748;50.844;4.396;2023-07-31T02:56:30;6.15;;;3.35;;
23159;SDS011;11748;50.844;4.396;2023-07-31T03:02:18;6.70;;;3.70;;
23159;SDS011;11748;50.844;4.396;2023-07-31T03:08:02;7.75;;;3.72;;
23159;SDS011;11748;50.844;4.396;2023-07-31T03:13:00;6.30;;;3.60;;
23159;SDS011;11748;50.844;4.396;2023-07-31T03:15:37;6.28;;;3.90;;
23159;SDS011;11748;50.844;4.396;2023-07-31T03:20:50;8.07;;;3.97;;
23159;SDS011;11748;50.844;4.396;2023-07-31T03:23:22;7.80;;;4.53;;
23159;SDS011;11748;50.844;4.396;2023-07-31T03:28:58;5.53;;;3.88;;
23159;SDS011;11748;50.844;4.396;2023-07-31T03:31:28;6.32;;;3.92;;
23159;SDS011;11748;50.844;4.396;2023-07-31T03:33:54;9.40;;;3.80;;
23159;SDS011;11748;50.844;4.396;2023-07-31T03:36:21;9.25;;;4.50;;
23159;SDS011;11748;50.844;4.396;2023-07-31T03:38:48;8.15;;;4.38;;
23159;SDS011;11748;50.844;4.396;2023-07-31T03:41:17;8.15;;;4.65;;
23159;SDS011;11748;50.844;4.396;2023-07-31T03:43:45;9.02;;;4.60;;
23159;SDS011;11748;50.844;4.396;2023-07-31T03:46:22;10.23;;;4.57;;
23159;SDS011;11748;50.844;4.396;2023-07-31T03:48:50;8.63;;;4.68;;
23159;SDS011;11748;50.844;4.396;2023-07-31T03:51:19;8.85;;;4.38;;
23159;SDS011;11748;50.844;4.396;2023-07-31T03:53:45;10.27;;;4.55;;
23159;SDS011;11748;50.844;4.396;2023-07-31T03:56:14;7.38;;;3.95;;
23159;SDS011;11748;50.844;4.396;2023-07-31T03:58:42;7.20;;;4.10;;
23159;SDS011;11748;50.844;4.396;2023-07-31T04:01:09;9.52;;;4.45;;
23159;SDS011;11748;50.844;4.396;2023-07-31T04:03:38;10.13;;;4.32;;
23159;SDS011;11748;50.844;4.396;2023-07-31T04:06:07;9.57;;;4.18;;
23159;SDS011;11748;50.844;4.396;2023-07-31T04:08:44;9.50;;;4.65;;
23159;SDS011;11748;50.844;4.396;2023-07-31T04:11:16;8.32;;;4.10;;
23159;SDS011;11748;50.844;4.396;2023-07-31T04:13:47;8.30;;;4.03;;
23159;SDS011;11748;50.844;4.396;2023-07-31T04:16:13;6.47;;;3.95;;
23159;SDS011;11748;50.844;4.396;2023-07-31T04:18:39;8.88;;;4.85;;
23159;SDS011;11748;50.844;4.396;2023-07-31T04:21:11;9.48;;;3.70;;
23159;SDS011;11748;50.844;4.396;2023-07-31T04:23:37;7.97;;;4.03;;
23159;SDS011;11748;50.844;4.396;2023-07-31T04:26:09;9.75;;;4.10;;
23159;SDS011;11748;50.844;4.396;2023-07-31T04:28:35;9.20;;;4.25;;
23159;SDS011;11748;50.844;4.396;2023-07-31T04:31:05;9.25;;;3.88;;
23159;SDS011;11748;50.844;4.396;2023-07-31T04:33:31;10.10;;;3.80;;
23159;SDS011;11748;50.844;4.396;2023-07-31T04:35:58;9.23;;;3.83;;
23159;SDS011;11748;50.844;4.396;2023-07-31T04:38:24;12.63;;;4.00;;
23159;SDS011;11748;50.844;4.396;2023-07-31T04:40:53;7.72;;;3.50;;
23159;SDS011;11748;50.844;4.396;2023-07-31T04:43:22;12.85;;;4.25;;
23159;SDS011;11748;50.844;4.396;2023-07-31T04:52:12;8.80;;;3.85;;
23159;SDS011;11748;50.844;4.396;2023-07-31T04:54:38;11.52;;;3.83;;
23159;SDS011;11748;50.844;4.396;2023-07-31T04:57:10;7.90;;;3.65;;
23159;SDS011;11748;50.844;4.396;2023-07-31T04:59:48;7.93;;;4.25;;
23159;SDS011;11748;50.844;4.396;2023-07-31T05:02:15;5.65;;;3.92;;
23159;SDS011;11748;50.844;4.396;2023-07-31T05:04:44;8.70;;;4.20;;
23159;SDS011;11748;50.844;4.396;2023-07-31T05:07:13;10.30;;;4.05;;
23159;SDS011;11748;50.844;4.396;2023-07-31T05:09:40;5.80;;;3.90;;
23159;SDS011;11748;50.844;4.396;2023-07-31T05:12:12;7.38;;;3.47;;
23159;SDS011;11748;50.844;4.396;2023-07-31T05:14:41;6.55;;;3.72;;
23159;SDS011;11748;50.844;4.396;2023-07-31T05:17:09;9.32;;;4.05;;
23159;SDS011;11748;50.844;4.396;2023-07-31T05:19:40;8.40;;;4.13;;
23159;SDS011;11748;50.844;4.396;2023-07-31T05:22:10;7.95;;;4.00;;
23159;SDS011;11748;50.844;4.396;2023-07-31T05:24:35;7.32;;;3.83;;
23159;SDS011;11748;50.844;4.396;2023-07-31T05:27:02;8.50;;;3.80;;
23159;SDS011;11748;50.844;4.396;2023-07-31T05:29:32;8.00;;;4.20;;
23159;SDS011;11748;50.844;4.396;2023-07-31T05:32:01;7.90;;;4.03;;
23159;SDS011;11748;50.844;4.396;2023-07-31T05:34:29;8.07;;;3.72;;
23159;SDS011;11748;50.844;4.396;2023-07-31T05:36:58;8.23;;;4.18;;
23159;SDS011;11748;50.844;4.396;2023-07-31T05:39:26;10.30;;;4.43;;
23159;SDS011;11748;50.844;4.396;2023-07-31T05:41:55;7.63;;;3.85;;
23159;SDS011;11748;50.844;4.396;2023-07-31T05:44:23;11.48;;;4.28;;
23159;SDS011;11748;50.844;4.396;2023-07-31T05:46:51;11.75;;;4.13;;
23159;SDS011;11748;50.844;4.396;2023-07-31T05:49:24;8.95;;;4.05;;
23159;SDS011;11748;50.844;4.396;2023-07-31T05:51:56;10.82;;;4.47;;
23159;SDS011;11748;50.844;4.396;2023-07-31T05:54:22;12.05;;;4.00;;
23159;SDS011;11748;50.844;4.396;2023-07-31T05:56:51;8.75;;;3.92;;
23159;SDS011;11748;50.844;4.396;2023-07-31T05:59:20;11.98;;;6.45;;
23159;SDS011;11748;50.844;4.396;2023-07-31T06:01:49;10.88;;;5.07;;
23159;SDS011;11748;50.844;4.396;2023-07-31T06:04:18;8.45;;;3.67;;
23159;SDS011;11748;50.844;4.396;2023-07-31T06:06:46;7.65;;;3.70;;
23159;SDS011;11748;50.844;4.396;2023-07-31T06:09:14;6.32;;;3.05;;
23159;SDS011;11748;50.844;4.396;2023-07-31T06:11:43;7.85;;;3.75;;
23159;SDS011;11748;50.844;4.396;2023-07-31T06:17:00;7.13;;;3.80;;
23159;SDS011;11748;50.844;4.396;2023-07-31T06:19:43;8.82;;;3.60;;
23159;SDS011;11748;50.844;4.396;2023-07-31T06:22:09;10.82;;;3.88;;
23159;SDS011;11748;50.844;4.396;2023-07-31T06:24:35;8.10;;;3.50;;
23159;SDS011;11748;50.844;4.396;2023-07-31T06:27:02;8.20;;;3.40;;
23159;SDS011;11748;50.844;4.396;2023-07-31T06:29:30;7.88;;;4.07;;
23159;SDS011;11748;50.844;4.396;2023-07-31T06:31:58;6.78;;;3.83;;
23159;SDS011;11748;50.844;4.396;2023-07-31T06:34:24;9.93;;;3.67;;
23159;SDS011;11748;50.844;4.396;2023-07-31T06:36:53;7.18;;;3.40;;
23159;SDS011;11748;50.844;4.396;2023-07-31T06:39:18;11.55;;;3.45;;
23159;SDS011;11748;50.844;4.396;2023-07-31T06:41:45;9.65;;;3.70;;
23159;SDS011;11748;50.844;4.396;2023-07-31T06:44:12;8.93;;;3.10;;
23159;SDS011;11748;50.844;4.396;2023-07-31T06:46:55;8.90;;;3.67;;
23159;SDS011;11748;50.844;4.396;2023-07-31T06:49:22;7.32;;;3.38;;
23159;SDS011;11748;50.844;4.396;2023-07-31T06:51:48;8.52;;;3.30;;
23159;SDS011;11748;50.844;4.396;2023-07-31T06:54:14;12.95;;;3.28;;
23159;SDS011;11748;50.844;4.396;2023-07-31T06:56:44;8.43;;;3.20;;
23159;SDS011;11748;50.844;4.396;2023-07-31T06:59:12;8.00;;;3.42;;
23159;SDS011;11748;50.844;4.396;2023-07-31T07:01:39;9.32;;;3.13;;
23159;SDS011;11748;50.844;4.396;2023-07-31T07:04:22;7.78;;;3.10;;
23159;SDS011;11748;50.844;4.396;2023-07-31T07:06:50;6.20;;;3.08;;
23159;SDS011;11748;50.844;4.396;2023-07-31T07:09:16;9.27;;;3.03;;
23159;SDS011;11748;50.844;4.396;2023-07-31T07:11:44;6.50;;;3.20;;
23159;SDS011;11748;50.844;4.396;2023-07-31T07:14:10;5.25;;;3.00;;
23159;SDS011;11748;50.844;4.396;2023-07-31T07:16:36;6.38;;;3.42;;
23159;SDS011;11748;50.844;4.396;2023-07-31T07:19:04;6.35;;;3.15;;
23159;SDS011;11748;50.844;4.396;2023-07-31T07:21:33;7.10;;;2.95;;
23159;SDS011;11748;50.844;4.396;2023-07-31T07:24:00;6.95;;;2.83;;
23159;SDS011;11748;50.844;4.396;2023-07-31T07:26:27;6.57;;;3.30;;
23159;SDS011;11748;50.844;4.396;2023-07-31T07:28:54;8.45;;;2.65;;
23159;SDS011;11748;50.844;4.396;2023-07-31T07:31:23;5.88;;;2.78;;
23159;SDS011;11748;50.844;4.396;2023-07-31T07:33:49;5.15;;;2.38;;
23159;SDS011;11748;50.844;4.396;2023-07-31T07:36:18;8.60;;;3.15;;
23159;SDS011;11748;50.844;4.396;2023-07-31T07:38:46;6.25;;;2.88;;
23159;SDS011;11748;50.844;4.396;2023-07-31T07:41:13;8.70;;;3.10;;
23159;SDS011;11748;50.844;4.396;2023-07-31T07:43:42;6.15;;;2.92;;
23159;SDS011;11748;50.844;4.396;2023-07-31T07:46:09;7.20;;;3.20;;
23159;SDS011;11748;50.844;4.396;2023-07-31T07:48:34;8.50;;;3.25;;
23159;SDS011;11748;50.844;4.396;2023-07-31T07:51:03;9.13;;;3.15;;
23159;SDS011;11748;50.844;4.396;2023-07-31T07:53:32;8.40;;;3.15;;
23159;SDS011;11748;50.844;4.396;2023-07-31T07:56:01;6.28;;;3.05;;
23159;SDS011;11748;50.844;4.396;2023-07-31T07:58:33;6.97;;;2.80;;
23159;SDS011;11748;50.844;4.396;2023-07-31T08:01:01;6.47;;;2.67;;
23159;SDS011;11748;50.844;4.396;2023-07-31T08:03:27;8.43;;;3.20;;
23159;SDS011;11748;50.844;4.396;2023-07-31T08:05:57;6.03;;;2.50;;
23159;SDS011;11748;50.844;4.396;2023-07-31T08:08:25;6.47;;;2.92;;
23159;SDS011;11748;50.844;4.396;2023-07-31T08:10:53;8.48;;;3.28;;
23159;SDS011;11748;50.844;4.396;2023-07-31T08:13:21;8.10;;;3.00;;
23159;SDS011;11748;50.844;4.396;2023-07-31T08:15:50;10.15;;;3.13;;
23159;SDS011;11748;50.844;4.396;2023-07-31T08:18:21;5.93;;;2.60;;
23159;SDS011;11748;50.844;4.396;2023-07-31T08:20:50;5.15;;;2.65;;
23159;SDS011;11748;50.844;4.396;2023-07-31T08:23:22;4.70;;;2.83;;
23159;SDS011;11748;50.844;4.396;2023-07-31T08:25:52;7.35;;;3.05;;
23159;SDS011;11748;50.844;4.396;2023-07-31T08:37:55;7.40;;;2.50;;
23159;SDS011;11748;50.844;4.396;2023-07-31T08:40:26;5.97;;;2.65;;
23159;SDS011;11748;50.844;4.396;2023-07-31T08:42:55;6.25;;;2.90;;
23159;SDS011;11748;50.844;4.396;2023-07-31T08:45:41;8.40;;;3.05;;
23159;SDS011;11748;50.844;4.396;2023-07-31T08:48:11;5.93;;;2.58;;
23159;SDS011;11748;50.844;4.396;2023-07-31T08:50:38;6.68;;;2.55;;
23159;SDS011;11748;50.844;4.396;2023-07-31T08:53:04;6.55;;;2.45;;
23159;SDS011;11748;50.844;4.396;2023-07-31T08:55:32;8.18;;;2.95;;
23159;SDS011;11748;50.844;4.396;2023-07-31T08:58:02;7.72;;;3.05;;
23159;SDS011;11748;50.844;4.396;2023-07-31T09:00:32;5.38;;;2.80;;
23159;SDS011;11748;50.844;4.396;2023-07-31T09:03:19;7.97;;;2.95;;
23159;SDS011;11748;50.844;4.396;2023-07-31T09:05:51;5.68;;;2.60;;
23159;SDS011;11748;50.844;4.396;2023-07-31T09:08:19;5.32;;;2.67;;
23159;SDS011;11748;50.844;4.396;2023-07-31T09:10:49;6.57;;;2.95;;
23159;SDS011;11748;50.844;4.396;2023-07-31T09:13:15;6.25;;;3.50;;
23159;SDS011;11748;50.844;4.396;2023-07-31T09:15:48;8.88;;;2.65;;
23159;SDS011;11748;50.844;4.396;2023-07-31T09:18:15;5.63;;;3.28;;
23159;SDS011;11748;50.844;4.396;2023-07-31T09:23:45;5.60;;;2.83;;
23159;SDS011;11748;50.844;4.396;2023-07-31T09:26:38;6.75;;;3.20;;
23159;SDS011;11748;50.844;4.396;2023-07-31T09:29:04;4.93;;;3.17;;
23159;SDS011;11748;50.844;4.396;2023-07-31T09:31:41;9.40;;;3.33;;
23159;SDS011;11748;50.844;4.396;2023-07-31T09:34:08;7.50;;;3.35;;
23159;SDS011;11748;50.844;4.396;2023-07-31T09:36:45;7.88;;;3.17;;
23159;SDS011;11748;50.844;4.396;2023-07-31T09:39:13;8.98;;;3.35;;
23159;SDS011;11748;50.844;4.396;2023-07-31T09:42:01;7.68;;;2.90;;
23159;SDS011;11748;50.844;4.396;2023-07-31T09:44:40;5.82;;;3.40;;
23159;SDS011;11748;50.844;4.396;2023-07-31T09:47:06;10.20;;;3.83;;
23159;SDS011;11748;50.844;4.396;2023-07-31T09:53:08;6.28;;;3.10;;
23159;SDS011;11748;50.844;4.396;2023-07-31T09:55:38;6.22;;;3.35;;
23159;SDS011;11748;50.844;4.396;2023-07-31T09:58:09;7.78;;;3.42;;
23159;SDS011;11748;50.844;4.396;2023-07-31T10:00:41;8.85;;;3.67;;
23159;SDS011;11748;50.844;4.396;2023-07-31T10:03:10;7.32;;;4.00;;
23159;SDS011;11748;50.844;4.396;2023-07-31T10:05:42;7.20;;;3.67;;
23159;SDS011;11748;50.844;4.396;2023-07-31T10:08:15;9.15;;;4.30;;
23159;SDS011;11748;50.844;4.396;2023-07-31T10:15:58;9.13;;;4.40;;
23159;SDS011;11748;50.844;4.396;2023-07-31T10:18:28;8.18;;;4.65;;
23159;SDS011;11748;50.844;4.396;2023-07-31T10:20:54;9.52;;;4.28;;
23159;SDS011;11748;50.844;4.396;2023-07-31T10:23:23;7.75;;;3.97;;
23159;SDS011;11748;50.844;4.396;2023-07-31T10:25:52;11.15;;;4.75;;
23159;SDS011;11748;50.844;4.396;2023-07-31T10:28:19;10.48;;;4.28;;
23159;SDS011;11748;50.844;4.396;2023-07-31T10:30:48;7.57;;;3.80;;
23159;SDS011;11748;50.844;4.396;2023-07-31T10:33:15;9.02;;;4.10;;
23159;SDS011;11748;50.844;4.396;2023-07-31T10:35:46;9.25;;;3.90;;
23159;SDS011;11748;50.844;4.396;2023-07-31T10:38:16;9.15;;;4.20;;
23159;SDS011;11748;50.844;4.396;2023-07-31T10:40:48;9.30;;;4.10;;
23159;SDS011;11748;50.844;4.396;2023-07-31T10:43:26;12.00;;;5.38;;
23159;SDS011;11748;50.844;4.396;2023-07-31T10:45:55;10.32;;;4.30;;
23159;SDS011;11748;50.844;4.396;2023-07-31T10:48:24;8.43;;;4.25;;
23159;SDS011;11748;50.844;4.396;2023-07-31T10:50:57;9.20;;;4.35;;
23159;SDS011;11748;50.844;4.396;2023-07-31T10:53:31;10.77;;;4.50;;
23159;SDS011;11748;50.844;4.396;2023-07-31T11:04:13;10.02;;;4.05;;
23159;SDS011;11748;50.844;4.396;2023-07-31T11:06:46;9.50;;;4.15;;
23159;SDS011;11748;50.844;4.396;2023-07-31T11:09:21;9.27;;;4.80;;
23159;SDS011;11748;50.844;4.396;2023-07-31T11:11:48;10.90;;;3.70;;
23159;SDS011;11748;50.844;4.396;2023-07-31T11:14:18;7.53;;;3.70;;
23159;SDS011;11748;50.844;4.396;2023-07-31T11:16:43;9.13;;;4.35;;
23159;SDS011;11748;50.844;4.396;2023-07-31T11:19:12;7.43;;;4.00;;
23159;SDS011;11748;50.844;4.396;2023-07-31T11:24:12;6.93;;;3.90;;
23159;SDS011;11748;50.844;4.396;2023-07-31T11:26:53;8.35;;;3.97;;
23159;SDS011;11748;50.844;4.396;2023-07-31T11:32:17;9.65;;;4.03;;
23159;SDS011;11748;50.844;4.396;2023-07-31T11:34:56;11.57;;;3.85;;
23159;SDS011;11748;50.844;4.396;2023-07-31T11:37:22;8.52;;;3.97;;
23159;SDS011;11748;50.844;4.396;2023-07-31T11:40:04;10.23;;;4.28;;
23159;SDS011;11748;50.844;4.396;2023-07-31T11:42:30;8.90;;;3.53;;
23159;SDS011;11748;50.844;4.396;2023-07-31T11:45:03;9.07;;;4.28;;
23159;SDS011;11748;50.844;4.396;2023-07-31T11:47:39;9.35;;;3.65;;
23159;SDS011;11748;50.844;4.396;2023-07-31T11:50:10;9.10;;;3.83;;
23159;SDS011;11748;50.844;4.396;2023-07-31T11:52:42;11.38;;;3.97;;
23159;SDS011;11748;50.844;4.396;2023-07-31T11:55:10;10.50;;;3.80;;
23159;SDS011;11748;50.844;4.396;2023-07-31T11:57:37;9.52;;;4.13;;
23159;SDS011;11748;50.844;4.396;2023-07-31T12:02:45;6.88;;;3.50;;
23159;SDS011;11748;50.844;4.396;2023-07-31T12:05:11;10.07;;;4.50;;
23159;SDS011;11748;50.844;4.396;2023-07-31T12:10:27;7.40;;;3.92;;
23159;SDS011;11748;50.844;4.396;2023-07-31T12:13:03;7.22;;;3.58;;
23159;SDS011;11748;50.844;4.396;2023-07-31T12:15:34;10.27;;;3.35;;
23159;SDS011;11748;50.844;4.396;2023-07-31T12:18:11;7.22;;;3.88;;
23159;SDS011;11748;50.844;4.396;2023-07-31T12:20:41;9.70;;;4.18;;
23159;SDS011;11748;50.844;4.396;2023-07-31T12:26:06;8.57;;;3.75;;
23159;SDS011;11748;50.844;4.396;2023-07-31T12:31:10;11.13;;;4.10;;
23159;SDS011;11748;50.844;4.396;2023-07-31T12:33:38;9.88;;;4.13;;
23159;SDS011;11748;50.844;4.396;2023-07-31T12:36:11;9.10;;;4.03;;
23159;SDS011;11748;50.844;4.396;2023-07-31T12:38:39;9.65;;;3.88;;
23159;SDS011;11748;50.844;4.396;2023-07-31T12:41:08;8.52;;;3.83;;
23159;SDS011;11748;50.844;4.396;2023-07-31T12:43:35;6.15;;;3.83;;
23159;SDS011;11748;50.844;4.396;2023-07-31T12:46:06;6.80;;;3.65;;
23159;SDS011;11748;50.844;4.396;2023-07-31T12:48:37;11.98;;;4.18;;
23159;SDS011;11748;50.844;4.396;2023-07-31T12:51:06;9.70;;;3.97;;
23159;SDS011;11748;50.844;4.396;2023-07-31T12:53:38;8.32;;;4.32;;
23159;SDS011;11748;50.844;4.396;2023-07-31T12:58:33;6.97;;;3.70;;
23159;SDS011;11748;50.844;4.396;2023-07-31T13:01:01;9.57;;;3.55;;
23159;SDS011;11748;50.844;4.396;2023-07-31T13:06:16;7.55;;;3.60;;
23159;SDS011;11748;50.844;4.396;2023-07-31T13:11:37;7.03;;;3.10;;
23159;SDS011;11748;50.844;4.396;2023-07-31T13:14:14;9.65;;;3.42;;
23159;SDS011;11748;50.844;4.396;2023-07-31T13:19:12;6.45;;;2.60;;
23159;SDS011;11748;50.844;4.396;2023-07-31T13:21:43;5.88;;;2.70;;
23159;SDS011;11748;50.844;4.396;2023-07-31T13:24:10;7.82;;;3.20;;
23159;SDS011;11748;50.844;4.396;2023-07-31T13:26:37;5.88;;;2.88;;
23159;SDS011;11748;50.844;4.396;2023-07-31T13:29:15;7.20;;;2.97;;
23159;SDS011;11748;50.844;4.396;2023-07-31T13:31:42;4.95;;;2.75;;
23159;SDS011;11748;50.844;4.396;2023-07-31T13:34:08;6.15;;;2.83;;
23159;SDS011;11748;50.844;4.396;2023-07-31T13:36:37;6.90;;;2.83;;
23159;SDS011;11748;50.844;4.396;2023-07-31T13:39:04;6.00;;;2.78;;
23159;SDS011;11748;50.844;4.396;2023-07-31T13:41:30;6.30;;;2.42;;
23159;SDS011;11748;50.844;4.396;2023-07-31T13:43:59;8.38;;;2.90;;
23159;SDS011;11748;50.844;4.396;2023-07-31T13:48:55;5.97;;;2.92;;
23159;SDS011;11748;50.844;4.396;2023-07-31T13:51:25;7.43;;;3.13;;
23159;SDS011;11748;50.844;4.396;2023-07-31T13:53:53;6.82;;;3.03;;
23159;SDS011;11748;50.844;4.396;2023-07-31T13:56:22;7.57;;;2.97;;
23159;SDS011;11748;50.844;4.396;2023-07-31T13:58:48;6.10;;;2.80;;
23159;SDS011;11748;50.844;4.396;2023-07-31T14:01:15;4.22;;;2.95;;
23159;SDS011;11748;50.844;4.396;2023-07-31T14:03:40;5.95;;;2.88;;
23159;SDS011;11748;50.844;4.396;2023-07-31T14:06:09;4.78;;;3.28;;
23159;SDS011;11748;50.844;4.396;2023-07-31T14:08:37;6.72;;;2.83;;
23159;SDS011;11748;50.844;4.396;2023-07-31T14:11:05;5.25;;;3.25;;
23159;SDS011;11748;50.844;4.396;2023-07-31T14:13:33;4.18;;;2.60;;
23159;SDS011;11748;50.844;4.396;2023-07-31T14:16:01;5.88;;;3.05;;
23159;SDS011;11748;50.844;4.396;2023-07-31T14:18:27;7.00;;;2.92;;
23159;SDS011;11748;50.844;4.396;2023-07-31T14:20:56;6.47;;;2.90;;
23159;SDS011;11748;50.844;4.396;2023-07-31T14:23:22;9.25;;;3.17;;
23159;SDS011;11748;50.844;4.396;2023-07-31T14:25:49;4.90;;;3.28;;
23159;SDS011;11748;50.844;4.396;2023-07-31T14:28:14;5.88;;;3.08;;
23159;SDS011;11748;50.844;4.396;2023-07-31T14:30:43;4.95;;;3.00;;
23159;SDS011;11748;50.844;4.396;2023-07-31T14:33:09;9.57;;;3.22;;
23159;SDS011;11748;50.844;4.396;2023-07-31T14:35:36;4.53;;;2.83;;
23159;SDS011;11748;50.844;4.396;2023-07-31T14:38:02;3.65;;;2.70;;
23159;SDS011;11748;50.844;4.396;2023-07-31T14:40:28;5.03;;;2.90;;
23159;SDS011;11748;50.844;4.396;2023-07-31T14:42:54;3.83;;;2.10;;
23159;SDS011;11748;50.844;4.396;2023-07-31T14:45:20;3.65;;;2.30;;
23159;SDS011;11748;50.844;4.396;2023-07-31T14:47:46;4.25;;;2.20;;
23159;SDS011;11748;50.844;4.396;2023-07-31T14:52:46;3.03;;;2.00;;
23159;SDS011;11748;50.844;4.396;2023-07-31T14:57:45;2.92;;;1.95;;
23159;SDS011;11748;50.844;4.396;2023-07-31T15:02:42;3.70;;;1.98;;
23159;SDS011;11748;50.844;4.396;2023-07-31T15:05:10;2.45;;;1.95;;
23159;SDS011;11748;50.844;4.396;2023-07-31T15:07:44;2.72;;;1.85;;
23159;SDS011;11748;50.844;4.396;2023-07-31T15:12:44;1.98;;;1.38;;
23159;SDS011;11748;50.844;4.396;2023-07-31T15:15:22;3.35;;;1.45;;
23159;SDS011;11748;50.844;4.396;2023-07-31T15:17:48;1.92;;;1.20;;
23159;SDS011;11748;50.844;4.396;2023-07-31T15:20:17;1.60;;;1.45;;
23159;SDS011;11748;50.844;4.396;2023-07-31T15:22:44;2.08;;;1.27;;
23159;SDS011;11748;50.844;4.396;2023-07-31T15:25:12;2.17;;;1.15;;
23159;SDS011;11748;50.844;4.396;2023-07-31T15:27:41;2.70;;;1.30;;
23159;SDS011;11748;50.844;4.396;2023-07-31T15:30:23;1.27;;;0.82;;
23159;SDS011;11748;50.844;4.396;2023-07-31T15:32:59;3.08;;;0.90;;
23159;SDS011;11748;50.844;4.396;2023-07-31T15:35:29;2.60;;;1.00;;
23159;SDS011;11748;50.844;4.396;2023-07-31T15:37:55;1.15;;;0.80;;
23159;SDS011;11748;50.844;4.396;2023-07-31T15:40:24;1.38;;;0.90;;
23159;SDS011;11748;50.844;4.396;2023-07-31T15:42:49;1.00;;;0.88;;
23159;SDS011;11748;50.844;4.396;2023-07-31T15:45:26;1.52;;;0.82;;
23159;SDS011;11748;50.844;4.396;2023-07-31T15:47:52;2.42;;;0.73;;
23159;SDS011;11748;50.844;4.396;2023-07-31T15:50:17;0.80;;;0.60;;
23159;SDS011;11748;50.844;4.396;2023-07-31T15:52:43;0.70;;;0.60;;
23159;SDS011;11748;50.844;4.396;2023-07-31T15:57:38;1.00;;;0.60;;
23159;SDS011;11748;50.844;4.396;2023-07-31T16:02:35;1.90;;;0.90;;
23159;SDS011;11748;50.844;4.396;2023-07-31T16:05:03;1.20;;;0.88;;
23159;SDS011;11748;50.844;4.396;2023-07-31T16:07:35;1.00;;;0.80;;
23159;SDS011;11748;50.844;4.396;2023-07-31T16:10:04;1.55;;;0.80;;
23159;SDS011;11748;50.844;4.396;2023-07-31T16:12:31;1.50;;;0.93;;
23159;SDS011;11748;50.844;4.396;2023-07-31T16:14:57;1.90;;;1.20;;
23159;SDS011;11748;50.844;4.396;2023-07-31T16:17:25;1.10;;;0.80;;
23159;SDS011;11748;50.844;4.396;2023-07-31T16:19:51;1.40;;;1.10;;
23159;SDS011;11748;50.844;4.396;2023-07-31T16:22:18;1.95;;;0.95;;
23159;SDS011;11748;50.844;4.396;2023-07-31T16:24:44;0.93;;;0.82;;
23159;SDS011;11748;50.844;4.396;2023-07-31T16:27:09;2.60;;;2.03;;
23159;SDS011;11748;50.844;4.396;2023-07-31T16:29:36;1.83;;;1.40;;
23159;SDS011;11748;50.844;4.396;2023-07-31T16:32:02;2.03;;;0.80;;
23159;SDS011;11748;50.844;4.396;2023-07-31T16:34:32;1.75;;;0.90;;
23159;SDS011;11748;50.844;4.396;2023-07-31T16:36:57;2.05;;;1.20;;
23159;SDS011;11748;50.844;4.396;2023-07-31T16:39:29;1.95;;;0.90;;
23159;SDS011;11748;50.844;4.396;2023-07-31T16:42:06;1.33;;;1.10;;
23159;SDS011;11748;50.844;4.396;2023-07-31T16:44:32;1.63;;;1.13;;
23159;SDS011;11748;50.844;4.396;2023-07-31T16:47:04;2.30;;;1.10;;
23159;SDS011;11748;50.844;4.396;2023-07-31T16:49:30;1.85;;;1.20;;
23159;SDS011;11748;50.844;4.396;2023-07-31T16:51:57;1.92;;;1.38;;
23159;SDS011;11748;50.844;4.396;2023-07-31T16:54:25;3.20;;;1.42;;
23159;SDS011;11748;50.844;4.396;2023-07-31T16:56:51;1.83;;;1.23;;
23159;SDS011;11748;50.844;4.396;2023-07-31T16:59:20;2.28;;;1.40;;
23159;SDS011;11748;50.844;4.396;2023-07-31T17:01:49;1.90;;;1.40;;
23159;SDS011;11748;50.844;4.396;2023-07-31T17:04:28;2.53;;;1.50;;
23159;SDS011;11748;50.844;4.396;2023-07-31T17:06:57;3.03;;;1.80;;